PWSweather.com
Personal Weather Stations
Station Observations
KTXROWLE6
Ravens Nest, Rowlett, TX 75089

Ravens NestRowlett, TX 75089

Lat: 32.93105, Lon: -96.57368

Elevation: 556

Station Type: Davis Vantage Pro2 6152

http://rowlett.ws

High Low Average
Temperature 69.3°F20.7°F 55.7°F13.2°F 60.2°F15.7°F
Dew Point 65.5°F18.6°F 54.2°F12.3°F 57.6°F14.2°F
Winds 20.0 mph WNW32.2 mph WNW Calm Calm 3.4 mph 5.5 mph
Wind Gusts 31.0 mph49.9 mph -- 6.7 mph10.8 mph
Humidity 96% 80% 92%
Pressure 30.01 in1016.30 in 29.87 in1011.50 in -
Precipitation 6.96 in176.80 in - -
Hour Temp Dew Point Humidity Winds Wind Gusts Pressure Precip Precip Rate Daily Precip Total
12:00 AM 69.1°F20.6°C 65.3°F18.5°C 88% 7.0 mph SE11.3 kmh SE 14.0 mph22.5 kmh 29.89 in1012.2 mb 0.00 in0.0 mm 0.00 in0.0 mm 0.00 in0.0 mm
12:05 AM 69.2°F20.7°C 65.4°F18.6°C 88% 6.0 mph SE9.7 kmh SE 13.0 mph20.9 kmh 29.88 in1011.9 mb 0.00 in0.0 mm 0.00 in0.0 mm 0.00 in0.0 mm
12:10 AM 69.2°F20.7°C 65.4°F18.6°C 88% 9.0 mph SE14.5 kmh SE 13.0 mph20.9 kmh 29.88 in1011.9 mb 0.00 in0.0 mm 0.00 in0.0 mm 0.00 in0.0 mm
12:15 AM 69.3°F20.7°C 65.5°F18.6°C 88% 4.0 mph ESE6.4 kmh ESE 14.0 mph22.5 kmh 29.88 in1011.9 mb 0.00 in0.0 mm 0.00 in0.0 mm 0.00 in0.0 mm
12:20 AM 69.3°F20.7°C 65.5°F18.6°C 88% 7.0 mph SE11.3 kmh SE 12.0 mph19.3 kmh 29.88 in1011.9 mb 0.00 in0.0 mm 0.00 in0.0 mm 0.00 in0.0 mm
12:25 AM 69.3°F20.7°C 65.5°F18.6°C 88% 10.0 mph ESE16.1 kmh ESE 11.0 mph17.7 kmh 29.88 in1011.9 mb 0.00 in0.0 mm 0.00 in0.0 mm 0.00 in0.0 mm
12:30 AM 69.2°F20.7°C 65.4°F18.6°C 88% 7.0 mph ESE11.3 kmh ESE 11.0 mph17.7 kmh 29.88 in1011.9 mb 0.00 in0.0 mm 0.00 in0.0 mm 0.00 in0.0 mm
12:35 AM 69.2°F20.7°C 65.4°F18.6°C 88% 7.0 mph SE11.3 kmh SE 10.0 mph16.1 kmh 29.87 in1011.5 mb 0.00 in0.0 mm 0.00 in0.0 mm 0.00 in0.0 mm
12:40 AM 69.1°F20.6°C 65.3°F18.5°C 88% 5.0 mph SE8.0 kmh SE 12.0 mph19.3 kmh 29.87 in1011.5 mb 0.00 in0.0 mm 0.00 in0.0 mm 0.00 in0.0 mm
12:45 AM 69.1°F20.6°C 65.3°F18.5°C 88% 8.0 mph SE12.9 kmh SE 12.0 mph19.3 kmh 29.87 in1011.5 mb 0.00 in0.0 mm 0.00 in0.0 mm 0.00 in0.0 mm
12:50 AM 69.0°F20.6°C 65.2°F18.4°C 88% 5.0 mph SSE8.0 kmh SSE 11.0 mph17.7 kmh 29.87 in1011.5 mb 0.00 in0.0 mm 0.00 in0.0 mm 0.00 in0.0 mm
12:55 AM 68.9°F20.5°C 65.5°F18.6°C 89% 8.0 mph SE12.9 kmh SE 12.0 mph19.3 kmh 29.87 in1011.5 mb 0.00 in0.0 mm 0.00 in0.0 mm 0.00 in0.0 mm
01:00 AM 68.8°F20.4°C 65.4°F18.6°C 89% 7.0 mph SE11.3 kmh SE 12.0 mph19.3 kmh 29.87 in1011.5 mb 0.00 in0.0 mm 0.00 in0.0 mm 0.00 in0.0 mm
01:05 AM 68.8°F20.4°C 65.4°F18.6°C 89% 2.0 mph SSE3.2 kmh SSE 10.0 mph16.1 kmh 29.88 in1011.9 mb 0.00 in0.0 mm 0.00 in0.0 mm 0.00 in0.0 mm
01:10 AM 68.6°F20.3°C 63.9°F17.7°C 85% 19.0 mph W30.6 kmh W 21.0 mph33.8 kmh 29.92 in1013.2 mb 0.00 in0.0 mm 0.00 in0.0 mm 0.00 in0.0 mm
01:15 AM 64.1°F17.8°C 57.7°F14.3°C 80% 7.0 mph NW11.3 kmh NW 21.0 mph33.8 kmh 29.93 in1013.5 mb 0.00 in0.0 mm 0.00 in0.0 mm 0.00 in0.0 mm
01:20 AM 62.5°F16.9°C 57.2°F14.0°C 83% 20.0 mph WNW32.2 kmh WNW 31.0 mph49.9 kmh 29.94 in1013.9 mb 0.00 in0.0 mm 0.00 in0.0 mm 0.00 in0.0 mm
01:25 AM 61.1°F16.2°C 57.1°F13.9°C 87% 11.0 mph WNW17.7 kmh WNW 23.0 mph37.0 kmh 29.94 in1013.9 mb 0.00 in0.0 mm 0.00 in0.0 mm 0.00 in0.0 mm
01:30 AM 60.0°F15.6°C 56.7°F13.7°C 89% 13.0 mph WNW20.9 kmh WNW 17.0 mph27.4 kmh 29.93 in1013.5 mb 0.01 in0.3 mm 0.12 in3.0 mm 0.01 in0.3 mm
01:35 AM 59.5°F15.3°C 56.8°F13.8°C 91% 9.0 mph NW14.5 kmh NW 18.0 mph29.0 kmh 29.94 in1013.9 mb 0.02 in0.5 mm 0.12 in3.0 mm 0.02 in0.5 mm
01:40 AM 59.3°F15.2°C 56.6°F13.7°C 91% 9.0 mph W14.5 kmh W 20.0 mph32.2 kmh 29.95 in1014.2 mb 0.04 in1.0 mm 0.24 in6.1 mm 0.04 in1.0 mm
01:45 AM 59.1°F15.1°C 56.7°F13.7°C 92% 14.0 mph WNW22.5 kmh WNW 15.0 mph24.1 kmh 29.94 in1013.9 mb 0.04 in1.0 mm 0.00 in0.0 mm 0.04 in1.0 mm
01:50 AM 59.0°F15.0°C 56.9°F13.8°C 93% 6.0 mph W9.7 kmh W 16.0 mph25.7 kmh 29.96 in1014.6 mb 0.06 in1.5 mm 0.24 in6.1 mm 0.06 in1.5 mm
01:55 AM 59.0°F15.0°C 56.9°F13.8°C 93% 7.0 mph W11.3 kmh W 15.0 mph24.1 kmh 29.96 in1014.6 mb 0.06 in1.5 mm 0.00 in0.0 mm 0.06 in1.5 mm
02:00 AM 58.9°F14.9°C 56.8°F13.8°C 93% 12.0 mph WNW19.3 kmh WNW 17.0 mph27.4 kmh 29.96 in1014.6 mb 0.08 in2.0 mm 0.02 in0.5 mm 0.08 in2.0 mm
02:05 AM 59.0°F15.0°C 56.9°F13.8°C 93% 9.0 mph W14.5 kmh W 14.0 mph22.5 kmh 29.95 in1014.2 mb 0.08 in2.0 mm 0.00 in0.0 mm 0.08 in2.0 mm
02:10 AM 59.1°F15.1°C 57.0°F13.9°C 93% 10.0 mph WNW16.1 kmh WNW 17.0 mph27.4 kmh 29.95 in1014.2 mb 0.09 in2.3 mm 0.12 in3.0 mm 0.09 in2.3 mm
02:15 AM 59.1°F15.1°C 57.0°F13.9°C 93% 8.0 mph W12.9 kmh W 17.0 mph27.4 kmh 29.95 in1014.2 mb 0.09 in2.3 mm 0.00 in0.0 mm 0.09 in2.3 mm
02:20 AM 59.2°F15.1°C 57.1°F13.9°C 93% 9.0 mph WNW14.5 kmh WNW 14.0 mph22.5 kmh 29.95 in1014.2 mb 0.10 in2.5 mm 0.12 in3.0 mm 0.10 in2.5 mm
02:25 AM 59.2°F15.1°C 57.1°F13.9°C 93% 9.0 mph W14.5 kmh W 16.0 mph25.7 kmh 29.95 in1014.2 mb 0.10 in2.5 mm 0.00 in0.0 mm 0.10 in2.5 mm
02:30 AM 59.1°F15.1°C 57.0°F13.9°C 93% 8.0 mph NW12.9 kmh NW 12.0 mph19.3 kmh 29.96 in1014.6 mb 0.09 in2.3 mm 0.00 in0.0 mm 0.10 in2.5 mm
02:35 AM 59.1°F15.1°C 57.0°F13.9°C 93% 10.0 mph WNW16.1 kmh WNW 14.0 mph22.5 kmh 29.97 in1014.9 mb 0.09 in2.3 mm 0.00 in0.0 mm 0.11 in2.8 mm
02:40 AM 59.1°F15.1°C 57.0°F13.9°C 93% 6.0 mph WNW9.7 kmh WNW 15.0 mph24.1 kmh 29.96 in1014.6 mb 0.07 in1.8 mm 0.00 in0.0 mm 0.11 in2.8 mm
02:45 AM 59.1°F15.1°C 57.0°F13.9°C 93% 7.0 mph WNW11.3 kmh WNW 10.0 mph16.1 kmh 29.97 in1014.9 mb 0.07 in1.8 mm 0.00 in0.0 mm 0.11 in2.8 mm
02:50 AM 59.1°F15.1°C 57.0°F13.9°C 93% 5.0 mph WNW8.0 kmh WNW 13.0 mph20.9 kmh 29.97 in1014.9 mb 0.06 in1.5 mm 0.00 in0.0 mm 0.12 in3.0 mm
02:55 AM 59.0°F15.0°C 56.9°F13.8°C 93% 7.0 mph W11.3 kmh W 14.0 mph22.5 kmh 29.97 in1014.9 mb 0.06 in1.5 mm 0.00 in0.0 mm 0.12 in3.0 mm
03:00 AM 59.0°F15.0°C 56.6°F13.7°C 92% 5.0 mph W8.0 kmh W 12.0 mph19.3 kmh 29.96 in1014.6 mb 0.04 in1.0 mm 0.00 in0.0 mm 0.12 in3.0 mm
03:05 AM 58.9°F14.9°C 56.8°F13.8°C 93% 6.0 mph WNW9.7 kmh WNW 12.0 mph19.3 kmh 29.97 in1014.9 mb 0.05 in1.3 mm 0.12 in3.0 mm 0.13 in3.3 mm
03:10 AM 58.8°F14.9°C 56.7°F13.7°C 93% 4.0 mph WNW6.4 kmh WNW 8.0 mph12.9 kmh 29.97 in1014.9 mb 0.05 in1.3 mm 0.00 in0.0 mm 0.14 in3.6 mm
03:15 AM 58.8°F14.9°C 56.7°F13.7°C 93% 3.0 mph WNW4.8 kmh WNW 9.0 mph14.5 kmh 29.96 in1014.6 mb 0.05 in1.3 mm 0.00 in0.0 mm 0.14 in3.6 mm
03:20 AM 58.7°F14.8°C 56.6°F13.7°C 93% 7.0 mph NW11.3 kmh NW 9.0 mph14.5 kmh 29.95 in1014.2 mb 0.04 in1.0 mm 0.00 in0.0 mm 0.14 in3.6 mm
03:25 AM 58.6°F14.8°C 56.5°F13.6°C 93% 7.0 mph WNW11.3 kmh WNW 11.0 mph17.7 kmh 29.94 in1013.9 mb 0.05 in1.3 mm 0.12 in3.0 mm 0.15 in3.8 mm
03:30 AM 58.6°F14.8°C 56.5°F13.6°C 93% 2.0 mph NW3.2 kmh NW 9.0 mph14.5 kmh 29.93 in1013.5 mb 0.05 in1.3 mm 0.00 in0.0 mm 0.15 in3.8 mm
03:35 AM 58.5°F14.7°C 56.4°F13.6°C 93% 2.0 mph NW3.2 kmh NW 8.0 mph12.9 kmh 29.94 in1013.9 mb 0.05 in1.3 mm 0.00 in0.0 mm 0.16 in4.1 mm
03:40 AM 58.5°F14.7°C 56.4°F13.6°C 93% Calm Calm 6.0 mph9.7 kmh 29.93 in1013.5 mb 0.05 in1.3 mm 0.00 in0.0 mm 0.16 in4.1 mm
03:45 AM 58.5°F14.7°C 56.4°F13.6°C 93% Calm Calm 6.0 mph9.7 kmh 29.95 in1014.2 mb 0.05 in1.3 mm 0.00 in0.0 mm 0.16 in4.1 mm
03:50 AM 58.4°F14.7°C 56.3°F13.5°C 93% Calm Calm 1.0 mph1.6 kmh 29.96 in1014.6 mb 0.05 in1.3 mm 0.00 in0.0 mm 0.17 in4.3 mm
03:55 AM 58.4°F14.7°C 56.3°F13.5°C 93% Calm Calm -- 29.96 in1014.6 mb 0.06 in1.5 mm 0.12 in3.0 mm 0.18 in4.6 mm
04:00 AM 58.4°F14.7°C 56.3°F13.5°C 93% Calm Calm -- 29.97 in1014.9 mb 0.06 in1.5 mm 0.00 in0.0 mm 0.18 in4.6 mm
04:05 AM 58.4°F14.7°C 56.3°F13.5°C 93% Calm Calm 4.0 mph6.4 kmh 29.94 in1013.9 mb 0.06 in1.5 mm 0.00 in0.0 mm 0.19 in4.8 mm
04:10 AM 58.3°F14.6°C 56.5°F13.6°C 94% Calm Calm 2.0 mph3.2 kmh 29.92 in1013.2 mb 0.06 in1.5 mm 0.00 in0.0 mm 0.20 in5.1 mm
04:15 AM 58.2°F14.6°C 56.4°F13.6°C 94% Calm Calm 1.0 mph1.6 kmh 29.90 in1012.5 mb 0.06 in1.5 mm 0.00 in0.0 mm 0.20 in5.1 mm
04:20 AM 58.2°F14.6°C 56.4°F13.6°C 94% Calm Calm 1.0 mph1.6 kmh 29.90 in1012.5 mb 0.07 in1.8 mm 0.12 in3.0 mm 0.21 in5.3 mm
04:25 AM 58.1°F14.5°C 56.3°F13.5°C 94% 2.0 mph NNW3.2 kmh NNW 3.0 mph4.8 kmh 29.88 in1011.9 mb 0.07 in1.8 mm 0.00 in0.0 mm 0.22 in5.6 mm
04:30 AM 58.1°F14.5°C 56.3°F13.5°C 94% Calm Calm 4.0 mph6.4 kmh 29.88 in1011.9 mb 0.07 in1.8 mm 0.00 in0.0 mm 0.22 in5.6 mm
04:35 AM 58.0°F14.4°C 56.2°F13.4°C 94% 3.0 mph N4.8 kmh N 5.0 mph8.0 kmh 29.88 in1011.9 mb 0.07 in1.8 mm 0.00 in0.0 mm 0.23 in5.8 mm
04:40 AM 57.9°F14.4°C 56.1°F13.4°C 94% Calm Calm 5.0 mph8.0 kmh 29.88 in1011.9 mb 0.08 in2.0 mm 0.12 in3.0 mm 0.24 in6.1 mm
04:45 AM 57.9°F14.4°C 56.1°F13.4°C 94% 3.0 mph NE4.8 kmh NE 5.0 mph8.0 kmh 29.88 in1011.9 mb 0.08 in2.0 mm 0.00 in0.0 mm 0.24 in6.1 mm
04:50 AM 57.8°F14.3°C 56.3°F13.5°C 95% 5.0 mph E8.0 kmh E 10.0 mph16.1 kmh 29.87 in1011.5 mb 0.07 in1.8 mm 0.00 in0.0 mm 0.24 in6.1 mm
04:55 AM 57.8°F14.3°C 56.3°F13.5°C 95% 6.0 mph E9.7 kmh E 9.0 mph14.5 kmh 29.87 in1011.5 mb 0.07 in1.8 mm 0.00 in0.0 mm 0.25 in6.4 mm
05:00 AM 57.8°F14.3°C 56.3°F13.5°C 95% Calm Calm 8.0 mph12.9 kmh 29.87 in1011.5 mb 0.08 in2.0 mm 0.01 in0.3 mm 0.26 in6.6 mm
05:05 AM 57.8°F14.3°C 56.3°F13.5°C 95% Calm Calm 5.0 mph8.0 kmh 29.89 in1012.2 mb 0.07 in1.8 mm 0.00 in0.0 mm 0.26 in6.6 mm
05:10 AM 57.8°F14.3°C 56.3°F13.5°C 95% 1.0 mph E1.6 kmh E 1.0 mph1.6 kmh 29.90 in1012.5 mb 0.07 in1.8 mm 0.00 in0.0 mm 0.27 in6.9 mm
05:15 AM 57.8°F14.3°C 56.3°F13.5°C 95% 6.0 mph E9.7 kmh E 7.0 mph11.3 kmh 29.90 in1012.5 mb 0.08 in2.0 mm 0.12 in3.0 mm 0.28 in7.1 mm
05:20 AM 57.8°F14.3°C 56.3°F13.5°C 95% 1.0 mph E1.6 kmh E 6.0 mph9.7 kmh 29.90 in1012.5 mb 0.07 in1.8 mm 0.00 in0.0 mm 0.28 in7.1 mm
05:25 AM 57.9°F14.4°C 56.4°F13.6°C 95% 2.0 mph E3.2 kmh E 3.0 mph4.8 kmh 29.90 in1012.5 mb 0.06 in1.5 mm 0.00 in0.0 mm 0.28 in7.1 mm
05:30 AM 57.9°F14.4°C 56.1°F13.4°C 94% Calm Calm 6.0 mph9.7 kmh 29.88 in1011.9 mb 0.07 in1.8 mm 0.12 in3.0 mm 0.29 in7.4 mm
05:35 AM 57.8°F14.3°C 56.0°F13.3°C 94% Calm Calm 1.0 mph1.6 kmh 29.87 in1011.5 mb 0.07 in1.8 mm 0.00 in0.0 mm 0.30 in7.6 mm
05:40 AM 57.8°F14.3°C 56.3°F13.5°C 95% 1.0 mph E1.6 kmh E 1.0 mph1.6 kmh 29.87 in1011.5 mb 0.06 in1.5 mm 0.00 in0.0 mm 0.30 in7.6 mm
05:45 AM 57.8°F14.3°C 56.3°F13.5°C 95% Calm Calm 2.0 mph3.2 kmh 29.87 in1011.5 mb 0.06 in1.5 mm 0.00 in0.0 mm 0.30 in7.6 mm
05:50 AM 57.8°F14.3°C 56.3°F13.5°C 95% Calm Calm 1.0 mph1.6 kmh 29.87 in1011.5 mb 0.07 in1.8 mm 0.12 in3.0 mm 0.31 in7.9 mm
05:55 AM 57.8°F14.3°C 56.3°F13.5°C 95% 5.0 mph E8.0 kmh E 5.0 mph8.0 kmh 29.88 in1011.9 mb 0.07 in1.8 mm 0.00 in0.0 mm 0.32 in8.1 mm
06:00 AM 57.8°F14.3°C 56.3°F13.5°C 95% 5.0 mph E8.0 kmh E 7.0 mph11.3 kmh 29.89 in1012.2 mb 0.06 in1.5 mm 0.00 in0.0 mm 0.32 in8.1 mm
06:05 AM 57.8°F14.3°C 56.3°F13.5°C 95% 7.0 mph ESE11.3 kmh ESE 8.0 mph12.9 kmh 29.89 in1012.2 mb 0.06 in1.5 mm 0.00 in0.0 mm 0.32 in8.1 mm
06:10 AM 57.8°F14.3°C 56.3°F13.5°C 95% 4.0 mph ESE6.4 kmh ESE 8.0 mph12.9 kmh 29.89 in1012.2 mb 0.06 in1.5 mm 0.00 in0.0 mm 0.33 in8.4 mm
06:15 AM 57.8°F14.3°C 56.3°F13.5°C 95% 5.0 mph E8.0 kmh E 8.0 mph12.9 kmh 29.89 in1012.2 mb 0.05 in1.3 mm 0.00 in0.0 mm 0.33 in8.4 mm
06:20 AM 57.8°F14.3°C 56.3°F13.5°C 95% 3.0 mph ESE4.8 kmh ESE 8.0 mph12.9 kmh 29.89 in1012.2 mb 0.06 in1.5 mm 0.12 in3.0 mm 0.34 in8.6 mm
06:25 AM 57.8°F14.3°C 56.3°F13.5°C 95% 4.0 mph ESE6.4 kmh ESE 8.0 mph12.9 kmh 29.90 in1012.5 mb 0.06 in1.5 mm 0.00 in0.0 mm 0.34 in8.6 mm
06:30 AM 57.8°F14.3°C 56.3°F13.5°C 95% 3.0 mph ESE4.8 kmh ESE 7.0 mph11.3 kmh 29.92 in1013.2 mb 0.05 in1.3 mm 0.00 in0.0 mm 0.34 in8.6 mm
06:35 AM 57.8°F14.3°C 56.3°F13.5°C 95% Calm Calm 4.0 mph6.4 kmh 29.92 in1013.2 mb 0.05 in1.3 mm 0.00 in0.0 mm 0.35 in8.9 mm
06:40 AM 57.8°F14.3°C 56.3°F13.5°C 95% Calm Calm 4.0 mph6.4 kmh 29.94 in1013.9 mb 0.05 in1.3 mm 0.00 in0.0 mm 0.35 in8.9 mm
06:45 AM 57.9°F14.4°C 56.4°F13.6°C 95% Calm Calm 4.0 mph6.4 kmh 29.94 in1013.9 mb 0.06 in1.5 mm 0.12 in3.0 mm 0.36 in9.1 mm
06:50 AM 57.9°F14.4°C 56.4°F13.6°C 95% 2.0 mph ESE3.2 kmh ESE 2.0 mph3.2 kmh 29.94 in1013.9 mb 0.05 in1.3 mm 0.00 in0.0 mm 0.36 in9.1 mm
06:55 AM 57.9°F14.4°C 56.4°F13.6°C 95% Calm Calm 4.0 mph6.4 kmh 29.94 in1013.9 mb 0.04 in1.0 mm 0.00 in0.0 mm 0.36 in9.1 mm
07:00 AM 57.8°F14.3°C 56.3°F13.5°C 95% 3.0 mph ESE4.8 kmh ESE 5.0 mph8.0 kmh 29.94 in1013.9 mb 0.05 in1.3 mm 0.01 in0.3 mm 0.37 in9.4 mm
07:05 AM 57.8°F14.3°C 56.3°F13.5°C 95% Calm Calm 9.0 mph14.5 kmh 29.94 in1013.9 mb 0.05 in1.3 mm 0.00 in0.0 mm 0.37 in9.4 mm
07:10 AM 57.8°F14.3°C 56.3°F13.5°C 95% Calm Calm 7.0 mph11.3 kmh 29.95 in1014.2 mb 0.04 in1.0 mm 0.00 in0.0 mm 0.37 in9.4 mm
07:15 AM 57.8°F14.3°C 56.3°F13.5°C 95% Calm Calm 4.0 mph6.4 kmh 29.97 in1014.9 mb 0.05 in1.3 mm 0.12 in3.0 mm 0.38 in9.7 mm
07:20 AM 57.8°F14.3°C 56.3°F13.5°C 95% 5.0 mph ESE8.0 kmh ESE 8.0 mph12.9 kmh 29.96 in1014.6 mb 0.04 in1.0 mm 0.00 in0.0 mm 0.38 in9.7 mm
07:25 AM 57.7°F14.3°C 56.2°F13.4°C 95% Calm Calm 5.0 mph8.0 kmh 29.98 in1015.2 mb 0.04 in1.0 mm 0.00 in0.0 mm 0.38 in9.7 mm
07:30 AM 57.8°F14.3°C 56.6°F13.7°C 96% 3.0 mph ESE4.8 kmh ESE 4.0 mph6.4 kmh 29.98 in1015.2 mb 0.04 in1.0 mm 0.00 in0.0 mm 0.38 in9.7 mm
07:35 AM 57.8°F14.3°C 56.6°F13.7°C 96% 4.0 mph ESE6.4 kmh ESE 7.0 mph11.3 kmh 29.98 in1015.2 mb 0.04 in1.0 mm 0.00 in0.0 mm 0.39 in9.9 mm
07:40 AM 57.8°F14.3°C 56.6°F13.7°C 96% 5.0 mph ESE8.0 kmh ESE 9.0 mph14.5 kmh 29.98 in1015.2 mb 0.04 in1.0 mm 0.00 in0.0 mm 0.39 in9.9 mm
07:45 AM 57.8°F14.3°C 56.6°F13.7°C 96% 6.0 mph SE9.7 kmh SE 12.0 mph19.3 kmh 29.98 in1015.2 mb 0.04 in1.0 mm 0.00 in0.0 mm 0.40 in10.2 mm
07:50 AM 57.8°F14.3°C 56.6°F13.7°C 96% 5.0 mph ESE8.0 kmh ESE 11.0 mph17.7 kmh 29.98 in1015.2 mb 0.04 in1.0 mm 0.00 in0.0 mm 0.40 in10.2 mm
07:55 AM 57.8°F14.3°C 56.6°F13.7°C 96% 5.0 mph ESE8.0 kmh ESE 11.0 mph17.7 kmh 29.98 in1015.2 mb 0.04 in1.0 mm 0.00 in0.0 mm 0.40 in10.2 mm
08:00 AM 57.8°F14.3°C 56.6°F13.7°C 96% 2.0 mph SE3.2 kmh SE 13.0 mph20.9 kmh 29.98 in1015.2 mb 0.04 in1.0 mm 0.00 in0.0 mm 0.41 in10.4 mm
08:05 AM 57.8°F14.3°C 56.6°F13.7°C 96% 8.0 mph ESE12.9 kmh ESE 13.0 mph20.9 kmh 29.97 in1014.9 mb 0.04 in1.0 mm 0.00 in0.0 mm 0.41 in10.4 mm
08:10 AM 57.7°F14.3°C 56.5°F13.6°C 96% 10.0 mph ESE16.1 kmh ESE 14.0 mph22.5 kmh 29.96 in1014.6 mb 0.05 in1.3 mm 0.12 in3.0 mm 0.42 in10.7 mm
08:15 AM 57.7°F14.3°C 56.5°F13.6°C 96% 11.0 mph E17.7 kmh E 14.0 mph22.5 kmh 29.96 in1014.6 mb 0.04 in1.0 mm 0.00 in0.0 mm 0.42 in10.7 mm
08:20 AM 57.7°F14.3°C 56.5°F13.6°C 96% 14.0 mph ESE22.5 kmh ESE 16.0 mph25.7 kmh 29.96 in1014.6 mb 0.04 in1.0 mm 0.00 in0.0 mm 0.42 in10.7 mm
08:25 AM 57.7°F14.3°C 56.5°F13.6°C 96% 11.0 mph ESE17.7 kmh ESE 14.0 mph22.5 kmh 29.96 in1014.6 mb 0.05 in1.3 mm 0.12 in3.0 mm 0.43 in10.9 mm
08:30 AM 57.7°F14.3°C 56.5°F13.6°C 96% 10.0 mph ESE16.1 kmh ESE 17.0 mph27.4 kmh 29.95 in1014.2 mb 0.05 in1.3 mm 0.00 in0.0 mm 0.43 in10.9 mm
08:35 AM 57.7°F14.3°C 56.5°F13.6°C 96% 6.0 mph E9.7 kmh E 15.0 mph24.1 kmh 29.96 in1014.6 mb 0.05 in1.3 mm 0.00 in0.0 mm 0.44 in11.2 mm
08:40 AM 57.8°F14.3°C 56.6°F13.7°C 96% 8.0 mph SE12.9 kmh SE 14.0 mph22.5 kmh 29.96 in1014.6 mb 0.05 in1.3 mm 0.00 in0.0 mm 0.44 in11.2 mm
08:45 AM 57.8°F14.3°C 56.6°F13.7°C 96% 9.0 mph ESE14.5 kmh ESE 16.0 mph25.7 kmh 29.95 in1014.2 mb 0.04 in1.0 mm 0.00 in0.0 mm 0.44 in11.2 mm
08:50 AM 57.9°F14.4°C 56.7°F13.7°C 96% 11.0 mph ESE17.7 kmh ESE 19.0 mph30.6 kmh 29.95 in1014.2 mb 0.05 in1.3 mm 0.12 in3.0 mm 0.45 in11.4 mm
08:55 AM 57.9°F14.4°C 56.7°F13.7°C 96% 10.0 mph E16.1 kmh E 20.0 mph32.2 kmh 29.96 in1014.6 mb 0.05 in1.3 mm 0.00 in0.0 mm 0.45 in11.4 mm
09:00 AM 58.0°F14.4°C 56.8°F13.8°C 96% 10.0 mph E16.1 kmh E 20.0 mph32.2 kmh 29.94 in1013.9 mb 0.05 in1.3 mm 0.00 in0.0 mm 0.46 in11.7 mm
09:05 AM 58.0°F14.4°C 56.8°F13.8°C 96% 15.0 mph E24.1 kmh E 18.0 mph29.0 kmh 29.93 in1013.5 mb 0.05 in1.3 mm 0.00 in0.0 mm 0.46 in11.7 mm
09:10 AM 58.1°F14.5°C 56.9°F13.8°C 96% 15.0 mph E24.1 kmh E 21.0 mph33.8 kmh 29.94 in1013.9 mb 0.04 in1.0 mm 0.00 in0.0 mm 0.46 in11.7 mm
09:15 AM 58.2°F14.6°C 57.0°F13.9°C 96% 9.0 mph E14.5 kmh E 16.0 mph25.7 kmh 29.94 in1013.9 mb 0.05 in1.3 mm 0.12 in3.0 mm 0.47 in11.9 mm
09:20 AM 58.3°F14.6°C 57.1°F13.9°C 96% 9.0 mph SE14.5 kmh SE 14.0 mph22.5 kmh 29.94 in1013.9 mb 0.05 in1.3 mm 0.00 in0.0 mm 0.47 in11.9 mm
09:25 AM 58.4°F14.7°C 57.2°F14.0°C 96% 10.0 mph E16.1 kmh E 14.0 mph22.5 kmh 29.93 in1013.5 mb 0.04 in1.0 mm 0.00 in0.0 mm 0.47 in11.9 mm
09:30 AM 58.5°F14.7°C 57.3°F14.1°C 96% 11.0 mph ESE17.7 kmh ESE 16.0 mph25.7 kmh 29.94 in1013.9 mb 0.05 in1.3 mm 0.12 in3.0 mm 0.48 in12.2 mm
09:35 AM 58.6°F14.8°C 57.4°F14.1°C 96% 4.0 mph SSW6.4 kmh SSW 10.0 mph16.1 kmh 29.98 in1015.2 mb 0.04 in1.0 mm 0.00 in0.0 mm 0.48 in12.2 mm
09:40 AM 58.7°F14.8°C 57.5°F14.2°C 96% 4.0 mph WSW6.4 kmh WSW 8.0 mph12.9 kmh 29.99 in1015.6 mb 0.04 in1.0 mm 0.00 in0.0 mm 0.48 in12.2 mm
09:45 AM 58.8°F14.9°C 57.6°F14.2°C 96% 6.0 mph SSW9.7 kmh SSW 10.0 mph16.1 kmh 30.00 in1015.9 mb 0.04 in1.0 mm 0.00 in0.0 mm 0.48 in12.2 mm
09:50 AM 58.9°F14.9°C 57.7°F14.3°C 96% 6.0 mph SW9.7 kmh SW 9.0 mph14.5 kmh 30.01 in1016.3 mb 0.03 in0.8 mm 0.00 in0.0 mm 0.48 in12.2 mm
09:55 AM 58.9°F14.9°C 57.7°F14.3°C 96% 2.0 mph SW3.2 kmh SW 7.0 mph11.3 kmh 30.01 in1016.3 mb 0.04 in1.0 mm 0.12 in3.0 mm 0.49 in12.4 mm
10:00 AM 59.0°F15.0°C 57.8°F14.3°C 96% Calm Calm 4.0 mph6.4 kmh 30.00 in1015.9 mb 0.03 in0.8 mm 0.00 in0.0 mm 0.49 in12.4 mm
10:05 AM 59.0°F15.0°C 57.8°F14.3°C 96% 2.0 mph SW3.2 kmh SW 5.0 mph8.0 kmh 29.98 in1015.2 mb 0.03 in0.8 mm 0.00 in0.0 mm 0.49 in12.4 mm
10:10 AM 59.1°F15.1°C 57.9°F14.4°C 96% Calm Calm 4.0 mph6.4 kmh 29.98 in1015.2 mb 0.03 in0.8 mm 0.00 in0.0 mm 0.49 in12.4 mm
10:15 AM 59.2°F15.1°C 58.0°F14.4°C 96% Calm Calm -- 29.97 in1014.9 mb 0.03 in0.8 mm 0.00 in0.0 mm 0.50 in12.7 mm
10:20 AM 59.3°F15.2°C 58.1°F14.5°C 96% Calm Calm -- 29.97 in1014.9 mb 0.03 in0.8 mm 0.00 in0.0 mm 0.50 in12.7 mm
10:25 AM 59.4°F15.2°C 58.2°F14.6°C 96% Calm Calm 2.0 mph3.2 kmh 29.97 in1014.9 mb 0.03 in0.8 mm 0.00 in0.0 mm 0.50 in12.7 mm
10:30 AM 59.4°F15.2°C 58.2°F14.6°C 96% Calm Calm 3.0 mph4.8 kmh 29.96 in1014.6 mb 0.02 in0.5 mm 0.00 in0.0 mm 0.50 in12.7 mm
10:35 AM 59.4°F15.2°C 58.2°F14.6°C 96% Calm Calm 3.0 mph4.8 kmh 29.97 in1014.9 mb 0.02 in0.5 mm 0.00 in0.0 mm 0.50 in12.7 mm
10:40 AM 59.5°F15.3°C 58.3°F14.6°C 96% 2.0 mph SW3.2 kmh SW 4.0 mph6.4 kmh 29.98 in1015.2 mb 0.03 in0.8 mm 0.12 in3.0 mm 0.51 in13.0 mm
10:45 AM 59.7°F15.4°C 58.5°F14.7°C 96% 5.0 mph SW8.0 kmh SW 7.0 mph11.3 kmh 30.00 in1015.9 mb 0.03 in0.8 mm 0.00 in0.0 mm 0.51 in13.0 mm
10:50 AM 59.8°F15.4°C 58.3°F14.6°C 95% 6.0 mph SSW9.7 kmh SSW 7.0 mph11.3 kmh 30.00 in1015.9 mb 0.03 in0.8 mm 0.00 in0.0 mm 0.51 in13.0 mm
10:55 AM 59.8°F15.4°C 58.3°F14.6°C 95% 4.0 mph SW6.4 kmh SW 7.0 mph11.3 kmh 30.01 in1016.3 mb 0.02 in0.5 mm 0.00 in0.0 mm 0.51 in13.0 mm
11:00 AM 59.9°F15.5°C 58.4°F14.7°C 95% 3.0 mph SW4.8 kmh SW 6.0 mph9.7 kmh 30.01 in1016.3 mb 0.03 in0.8 mm 0.01 in0.3 mm 0.52 in13.2 mm
11:05 AM 59.9°F15.5°C 58.4°F14.7°C 95% 4.0 mph SW6.4 kmh SW 8.0 mph12.9 kmh 30.01 in1016.3 mb 0.03 in0.8 mm 0.00 in0.0 mm 0.52 in13.2 mm
11:10 AM 59.9°F15.5°C 58.1°F14.5°C 94% 6.0 mph S9.7 kmh S 7.0 mph11.3 kmh 30.00 in1015.9 mb 0.03 in0.8 mm 0.00 in0.0 mm 0.52 in13.2 mm
11:15 AM 59.9°F15.5°C 58.1°F14.5°C 94% 5.0 mph SW8.0 kmh SW 7.0 mph11.3 kmh 30.01 in1016.3 mb 0.02 in0.5 mm 0.00 in0.0 mm 0.52 in13.2 mm
11:20 AM 60.0°F15.6°C 58.2°F14.6°C 94% 2.0 mph SW3.2 kmh SW 7.0 mph11.3 kmh 30.01 in1016.3 mb 0.02 in0.5 mm 0.00 in0.0 mm 0.52 in13.2 mm
11:25 AM 60.1°F15.6°C 58.3°F14.6°C 94% 4.0 mph SW6.4 kmh SW 7.0 mph11.3 kmh 30.00 in1015.9 mb 0.02 in0.5 mm 0.00 in0.0 mm 0.52 in13.2 mm
11:30 AM 60.1°F15.6°C 58.3°F14.6°C 94% Calm Calm 4.0 mph6.4 kmh 29.99 in1015.6 mb 0.02 in0.5 mm 0.00 in0.0 mm 0.52 in13.2 mm
11:35 AM 60.0°F15.6°C 58.2°F14.6°C 94% 6.0 mph SE9.7 kmh SE 6.0 mph9.7 kmh 29.97 in1014.9 mb 0.03 in0.8 mm 0.12 in3.0 mm 0.53 in13.5 mm
11:40 AM 60.0°F15.6°C 58.2°F14.6°C 94% 8.0 mph E12.9 kmh E 8.0 mph12.9 kmh 29.96 in1014.6 mb 0.02 in0.5 mm 0.00 in0.0 mm 0.53 in13.5 mm
11:45 AM 60.0°F15.6°C 58.2°F14.6°C 94% 5.0 mph E8.0 kmh E 10.0 mph16.1 kmh 29.93 in1013.5 mb 0.02 in0.5 mm 0.00 in0.0 mm 0.53 in13.5 mm
11:50 AM 60.1°F15.6°C 58.3°F14.6°C 94% 2.0 mph E3.2 kmh E 9.0 mph14.5 kmh 29.94 in1013.9 mb 0.03 in0.8 mm 0.12 in3.0 mm 0.54 in13.7 mm
11:55 AM 60.1°F15.6°C 58.3°F14.6°C 94% 5.0 mph E8.0 kmh E 10.0 mph16.1 kmh 29.93 in1013.5 mb 0.03 in0.8 mm 0.00 in0.0 mm 0.54 in13.7 mm
12:00 PM 60.1°F15.6°C 58.3°F14.6°C 94% 7.0 mph ESE11.3 kmh ESE 8.0 mph12.9 kmh 29.94 in1013.9 mb 0.02 in0.5 mm 0.00 in0.0 mm 0.54 in13.7 mm
12:05 PM 60.2°F15.7°C 58.4°F14.7°C 94% 4.0 mph SSW6.4 kmh SSW 7.0 mph11.3 kmh 29.97 in1014.9 mb 0.02 in0.5 mm 0.00 in0.0 mm 0.54 in13.7 mm
12:10 PM 60.3°F15.7°C 58.5°F14.7°C 94% 4.0 mph SW6.4 kmh SW 12.0 mph19.3 kmh 29.99 in1015.6 mb 0.02 in0.5 mm 0.00 in0.0 mm 0.54 in13.7 mm
12:15 PM 60.3°F15.7°C 58.2°F14.6°C 93% 5.0 mph SW8.0 kmh SW 9.0 mph14.5 kmh 29.99 in1015.6 mb 0.02 in0.5 mm 0.00 in0.0 mm 0.54 in13.7 mm
12:20 PM 60.3°F15.7°C 58.2°F14.6°C 93% 4.0 mph SSW6.4 kmh SSW 7.0 mph11.3 kmh 29.98 in1015.2 mb 0.02 in0.5 mm 0.00 in0.0 mm 0.54 in13.7 mm
12:25 PM 60.3°F15.7°C 58.2°F14.6°C 93% 5.0 mph SE8.0 kmh SE 4.0 mph6.4 kmh 29.95 in1014.2 mb 0.02 in0.5 mm 0.00 in0.0 mm 0.54 in13.7 mm
12:30 PM 60.3°F15.7°C 58.2°F14.6°C 93% 6.0 mph SW9.7 kmh SW 7.0 mph11.3 kmh 29.96 in1014.6 mb 0.03 in0.8 mm 0.12 in3.0 mm 0.55 in14.0 mm
12:35 PM 60.4°F15.8°C 58.3°F14.6°C 93% 4.0 mph SW6.4 kmh SW 8.0 mph12.9 kmh 29.98 in1015.2 mb 0.02 in0.5 mm 0.00 in0.0 mm 0.55 in14.0 mm
12:40 PM 60.4°F15.8°C 58.3°F14.6°C 93% 1.0 mph SW1.6 kmh SW 7.0 mph11.3 kmh 29.97 in1014.9 mb 0.02 in0.5 mm 0.00 in0.0 mm 0.55 in14.0 mm
12:45 PM 60.3°F15.7°C 58.2°F14.6°C 93% 4.0 mph SSW6.4 kmh SSW 7.0 mph11.3 kmh 29.96 in1014.6 mb 0.02 in0.5 mm 0.00 in0.0 mm 0.55 in14.0 mm
12:50 PM 60.2°F15.7°C 58.1°F14.5°C 93% 1.0 mph S1.6 kmh S 3.0 mph4.8 kmh 29.95 in1014.2 mb 0.01 in0.3 mm 0.00 in0.0 mm 0.55 in14.0 mm
12:55 PM 60.2°F15.7°C 58.1°F14.5°C 93% 2.0 mph S3.2 kmh S 4.0 mph6.4 kmh 29.94 in1013.9 mb 0.02 in0.5 mm 0.12 in3.0 mm 0.56 in14.2 mm
01:00 PM 60.2°F15.7°C 58.1°F14.5°C 93% 4.0 mph SW6.4 kmh SW 7.0 mph11.3 kmh 29.95 in1014.2 mb 0.02 in0.5 mm 0.00 in0.0 mm 0.56 in14.2 mm
01:05 PM 60.2°F15.7°C 58.1°F14.5°C 93% 2.0 mph S3.2 kmh S 7.0 mph11.3 kmh 29.95 in1014.2 mb 0.02 in0.5 mm 0.00 in0.0 mm 0.56 in14.2 mm
01:10 PM 60.2°F15.7°C 57.8°F14.3°C 92% 6.0 mph SE9.7 kmh SE 8.0 mph12.9 kmh 29.95 in1014.2 mb 0.02 in0.5 mm 0.00 in0.0 mm 0.56 in14.2 mm
01:15 PM 60.3°F15.7°C 57.9°F14.4°C 92% 5.0 mph SE8.0 kmh SE 7.0 mph11.3 kmh 29.95 in1014.2 mb 0.02 in0.5 mm 0.00 in0.0 mm 0.56 in14.2 mm
01:20 PM 60.4°F15.8°C 58.0°F14.4°C 92% 5.0 mph ESE8.0 kmh ESE 8.0 mph12.9 kmh 29.94 in1013.9 mb 0.02 in0.5 mm 0.00 in0.0 mm 0.56 in14.2 mm
01:25 PM 60.4°F15.8°C 58.0°F14.4°C 92% 5.0 mph ESE8.0 kmh ESE 8.0 mph12.9 kmh 29.92 in1013.2 mb 0.02 in0.5 mm 0.00 in0.0 mm 0.56 in14.2 mm
01:30 PM 60.4°F15.8°C 58.0°F14.4°C 92% 5.0 mph ESE8.0 kmh ESE 11.0 mph17.7 kmh 29.92 in1013.2 mb 0.01 in0.3 mm 0.00 in0.0 mm 0.56 in14.2 mm
01:35 PM 60.4°F15.8°C 58.0°F14.4°C 92% 3.0 mph SE4.8 kmh SE 8.0 mph12.9 kmh 29.92 in1013.2 mb 0.01 in0.3 mm 0.00 in0.0 mm 0.56 in14.2 mm
01:40 PM 60.4°F15.8°C 58.0°F14.4°C 92% 4.0 mph SW6.4 kmh SW 7.0 mph11.3 kmh 29.93 in1013.5 mb 0.02 in0.5 mm 0.12 in3.0 mm 0.57 in14.5 mm
01:45 PM 60.5°F15.8°C 58.1°F14.5°C 92% 1.0 mph SSW1.6 kmh SSW 6.0 mph9.7 kmh 29.93 in1013.5 mb 0.02 in0.5 mm 0.00 in0.0 mm 0.57 in14.5 mm
01:50 PM 60.4°F15.8°C 58.0°F14.4°C 92% 3.0 mph SE4.8 kmh SE 5.0 mph8.0 kmh 29.92 in1013.2 mb 0.02 in0.5 mm 0.00 in0.0 mm 0.57 in14.5 mm
01:55 PM 60.4°F15.8°C 58.0°F14.4°C 92% 3.0 mph SSE4.8 kmh SSE 5.0 mph8.0 kmh 29.92 in1013.2 mb 0.01 in0.3 mm 0.00 in0.0 mm 0.57 in14.5 mm
02:00 PM 60.5°F15.8°C 58.1°F14.5°C 92% 2.0 mph SSE3.2 kmh SSE 5.0 mph8.0 kmh 29.94 in1013.9 mb 0.01 in0.3 mm 0.00 in0.0 mm 0.57 in14.5 mm
02:05 PM 60.5°F15.8°C 58.1°F14.5°C 92% Calm Calm 5.0 mph8.0 kmh 29.92 in1013.2 mb 0.01 in0.3 mm 0.00 in0.0 mm 0.57 in14.5 mm
02:10 PM 60.5°F15.8°C 58.1°F14.5°C 92% 1.0 mph SSE1.6 kmh SSE 4.0 mph6.4 kmh 29.94 in1013.9 mb 0.02 in0.5 mm 0.12 in3.0 mm 0.58 in14.7 mm
02:15 PM 60.5°F15.8°C 58.1°F14.5°C 92% 3.0 mph SSE4.8 kmh SSE 5.0 mph8.0 kmh 29.94 in1013.9 mb 0.02 in0.5 mm 0.00 in0.0 mm 0.58 in14.7 mm
02:20 PM 60.5°F15.8°C 58.1°F14.5°C 92% 6.0 mph SSW9.7 kmh SSW 7.0 mph11.3 kmh 29.94 in1013.9 mb 0.02 in0.5 mm 0.00 in0.0 mm 0.58 in14.7 mm
02:25 PM 60.6°F15.9°C 58.2°F14.6°C 92% 3.0 mph SSW4.8 kmh SSW 7.0 mph11.3 kmh 29.95 in1014.2 mb 0.02 in0.5 mm 0.00 in0.0 mm 0.58 in14.7 mm
02:30 PM 60.7°F15.9°C 58.3°F14.6°C 92% 4.0 mph S6.4 kmh S 7.0 mph11.3 kmh 29.94 in1013.9 mb 0.02 in0.5 mm 0.00 in0.0 mm 0.58 in14.7 mm
02:35 PM 60.7°F15.9°C 58.3°F14.6°C 92% 4.0 mph S6.4 kmh S 6.0 mph9.7 kmh 29.93 in1013.5 mb 0.02 in0.5 mm 0.00 in0.0 mm 0.58 in14.7 mm
02:40 PM 60.8°F16.0°C 58.1°F14.5°C 91% 5.0 mph SW8.0 kmh SW 7.0 mph11.3 kmh 29.93 in1013.5 mb 0.01 in0.3 mm 0.00 in0.0 mm 0.58 in14.7 mm
02:45 PM 60.8°F16.0°C 58.1°F14.5°C 91% 3.0 mph SW4.8 kmh SW 7.0 mph11.3 kmh 29.92 in1013.2 mb 0.01 in0.3 mm 0.00 in0.0 mm 0.58 in14.7 mm
02:50 PM 61.0°F16.1°C 58.3°F14.6°C 91% 6.0 mph WSW9.7 kmh WSW 7.0 mph11.3 kmh 29.90 in1012.5 mb 0.01 in0.3 mm 0.00 in0.0 mm 0.58 in14.7 mm
02:55 PM 61.1°F16.2°C 58.4°F14.7°C 91% 4.0 mph SW6.4 kmh SW 6.0 mph9.7 kmh 29.90 in1012.5 mb 0.01 in0.3 mm 0.00 in0.0 mm 0.58 in14.7 mm
03:00 PM 61.2°F16.2°C 58.5°F14.7°C 91% Calm Calm 6.0 mph9.7 kmh 29.89 in1012.2 mb 0.01 in0.3 mm 0.00 in0.0 mm 0.58 in14.7 mm
03:05 PM 61.6°F16.4°C 58.6°F14.8°C 90% 4.0 mph SSW6.4 kmh SSW 7.0 mph11.3 kmh 29.92 in1013.2 mb 0.01 in0.3 mm 0.00 in0.0 mm 0.58 in14.7 mm
03:10 PM 61.9°F16.6°C 58.9°F14.9°C 90% 7.0 mph SW11.3 kmh SW 8.0 mph12.9 kmh 29.93 in1013.5 mb 0.00 in0.0 mm 0.00 in0.0 mm 0.58 in14.7 mm
03:15 PM 62.7°F17.1°C 59.7°F15.4°C 90% 5.0 mph SW8.0 kmh SW 8.0 mph12.9 kmh 29.94 in1013.9 mb 0.00 in0.0 mm 0.00 in0.0 mm 0.58 in14.7 mm
03:20 PM 62.9°F17.2°C 59.2°F15.1°C 88% 4.0 mph SW6.4 kmh SW 8.0 mph12.9 kmh 29.94 in1013.9 mb 0.00 in0.0 mm 0.00 in0.0 mm 0.58 in14.7 mm
03:25 PM 63.0°F17.2°C 59.0°F15.0°C 87% 4.0 mph SW6.4 kmh SW 11.0 mph17.7 kmh 29.94 in1013.9 mb 0.00 in0.0 mm 0.00 in0.0 mm 0.58 in14.7 mm
03:30 PM 63.2°F17.3°C 58.9°F14.9°C 86% 6.0 mph SW9.7 kmh SW 8.0 mph12.9 kmh 29.94 in1013.9 mb 0.00 in0.0 mm 0.00 in0.0 mm 0.58 in14.7 mm
03:35 PM 63.4°F17.4°C 59.1°F15.1°C 86% Calm Calm 6.0 mph9.7 kmh 29.94 in1013.9 mb 0.00 in0.0 mm 0.00 in0.0 mm 0.58 in14.7 mm
03:40 PM 63.4°F17.4°C 58.8°F14.9°C 85% 6.0 mph SE9.7 kmh SE 9.0 mph14.5 kmh 29.93 in1013.5 mb 0.00 in0.0 mm 0.00 in0.0 mm 0.58 in14.7 mm
03:45 PM 63.4°F17.4°C 58.4°F14.7°C 84% Calm Calm 6.0 mph9.7 kmh 29.93 in1013.5 mb 0.00 in0.0 mm 0.00 in0.0 mm 0.58 in14.7 mm
03:50 PM 63.5°F17.5°C 58.5°F14.7°C 84% Calm Calm 6.0 mph9.7 kmh 29.93 in1013.5 mb 0.00 in0.0 mm 0.00 in0.0 mm 0.58 in14.7 mm
03:55 PM 63.6°F17.6°C 59.0°F15.0°C 85% 1.0 mph S1.6 kmh S 6.0 mph9.7 kmh 29.93 in1013.5 mb 0.00 in0.0 mm 0.00 in0.0 mm 0.58 in14.7 mm
04:00 PM 63.8°F17.7°C 58.8°F14.9°C 84% 2.0 mph SE3.2 kmh SE 8.0 mph12.9 kmh 29.93 in1013.5 mb 0.00 in0.0 mm 0.00 in0.0 mm 0.58 in14.7 mm
04:05 PM 64.0°F17.8°C 59.0°F15.0°C 84% 2.0 mph SSW3.2 kmh SSW 9.0 mph14.5 kmh 29.93 in1013.5 mb 0.00 in0.0 mm 0.00 in0.0 mm 0.58 in14.7 mm
04:10 PM 64.1°F17.8°C 59.1°F15.1°C 84% 5.0 mph ESE8.0 kmh ESE 7.0 mph11.3 kmh 29.93 in1013.5 mb 0.00 in0.0 mm 0.00 in0.0 mm 0.58 in14.7 mm
04:15 PM 64.2°F17.9°C 59.2°F15.1°C 84% Calm Calm 7.0 mph11.3 kmh 29.94 in1013.9 mb 0.00 in0.0 mm 0.00 in0.0 mm 0.58 in14.7 mm
04:20 PM 64.2°F17.9°C 58.9°F14.9°C 83% 4.0 mph ESE6.4 kmh ESE 7.0 mph11.3 kmh 29.94 in1013.9 mb 0.00 in0.0 mm 0.00 in0.0 mm 0.58 in14.7 mm
04:25 PM 64.3°F17.9°C 59.0°F15.0°C 83% 2.0 mph ESE3.2 kmh ESE 5.0 mph8.0 kmh 29.94 in1013.9 mb 0.00 in0.0 mm 0.00 in0.0 mm 0.58 in14.7 mm
04:30 PM 64.3°F17.9°C 59.0°F15.0°C 83% 1.0 mph ESE1.6 kmh ESE 9.0 mph14.5 kmh 29.94 in1013.9 mb 0.00 in0.0 mm 0.00 in0.0 mm 0.58 in14.7 mm
04:35 PM 64.3°F17.9°C 59.0°F15.0°C 83% 3.0 mph ESE4.8 kmh ESE 7.0 mph11.3 kmh 29.94 in1013.9 mb 0.00 in0.0 mm 0.00 in0.0 mm 0.58 in14.7 mm
04:40 PM 64.2°F17.9°C 58.9°F14.9°C 83% 1.0 mph ESE1.6 kmh ESE 8.0 mph12.9 kmh 29.94 in1013.9 mb 0.00 in0.0 mm 0.00 in0.0 mm 0.58 in14.7 mm
04:45 PM 64.4°F18.0°C 59.4°F15.2°C 84% Calm Calm 4.0 mph6.4 kmh 29.94 in1013.9 mb 0.00 in0.0 mm 0.00 in0.0 mm 0.58 in14.7 mm
04:50 PM 64.9°F18.3°C 59.9°F15.5°C 84% 2.0 mph SSW3.2 kmh SSW 7.0 mph11.3 kmh 29.94 in1013.9 mb 0.00 in0.0 mm 0.00 in0.0 mm 0.58 in14.7 mm
04:55 PM 65.1°F18.4°C 59.4°F15.2°C 82% 2.0 mph SE3.2 kmh SE 10.0 mph16.1 kmh 29.94 in1013.9 mb 0.00 in0.0 mm 0.00 in0.0 mm 0.58 in14.7 mm
05:00 PM 65.0°F18.3°C 59.3°F15.2°C 82% 1.0 mph SE1.6 kmh SE 8.0 mph12.9 kmh 29.95 in1014.2 mb 0.00 in0.0 mm 0.00 in0.0 mm 0.58 in14.7 mm
05:05 PM 65.1°F18.4°C 59.4°F15.2°C 82% 2.0 mph SE3.2 kmh SE 7.0 mph11.3 kmh 29.95 in1014.2 mb 0.00 in0.0 mm 0.00 in0.0 mm 0.58 in14.7 mm
05:10 PM 65.0°F18.3°C 59.7°F15.4°C 83% 4.0 mph ESE6.4 kmh ESE 10.0 mph16.1 kmh 29.94 in1013.9 mb 0.00 in0.0 mm 0.00 in0.0 mm 0.58 in14.7 mm
05:15 PM 65.1°F18.4°C 59.8°F15.4°C 83% 4.0 mph SE6.4 kmh SE 8.0 mph12.9 kmh 29.94 in1013.9 mb 0.00 in0.0 mm 0.00 in0.0 mm 0.58 in14.7 mm
05:20 PM 65.0°F18.3°C 59.3°F15.2°C 82% 7.0 mph ESE11.3 kmh ESE 8.0 mph12.9 kmh 29.94 in1013.9 mb 0.00 in0.0 mm 0.00 in0.0 mm 0.58 in14.7 mm
05:25 PM 65.0°F18.3°C 59.3°F15.2°C 82% 1.0 mph SE1.6 kmh SE 10.0 mph16.1 kmh 29.94 in1013.9 mb 0.00 in0.0 mm 0.00 in0.0 mm 0.58 in14.7 mm
05:30 PM 65.0°F18.3°C 59.7°F15.4°C 83% Calm Calm 7.0 mph11.3 kmh 29.94 in1013.9 mb 0.00 in0.0 mm 0.00 in0.0 mm 0.58 in14.7 mm
05:35 PM 65.0°F18.3°C 59.7°F15.4°C 83% Calm Calm 8.0 mph12.9 kmh 29.93 in1013.5 mb 0.00 in0.0 mm 0.00 in0.0 mm 0.58 in14.7 mm
05:40 PM 64.9°F18.3°C 59.2°F15.1°C 82% 2.0 mph SE3.2 kmh SE 7.0 mph11.3 kmh 29.93 in1013.5 mb 0.00 in0.0 mm 0.00 in0.0 mm 0.58 in14.7 mm
05:45 PM 64.7°F18.2°C 59.0°F15.0°C 82% 7.0 mph ESE11.3 kmh ESE 8.0 mph12.9 kmh 29.93 in1013.5 mb 0.00 in0.0 mm 0.00 in0.0 mm 0.58 in14.7 mm
05:50 PM 64.4°F18.0°C 58.7°F14.8°C 82% 2.0 mph ESE3.2 kmh ESE 7.0 mph11.3 kmh 29.93 in1013.5 mb 0.00 in0.0 mm 0.00 in0.0 mm 0.58 in14.7 mm
05:55 PM 64.3°F17.9°C 59.0°F15.0°C 83% 3.0 mph ESE4.8 kmh ESE 4.0 mph6.4 kmh 29.94 in1013.9 mb 0.00 in0.0 mm 0.00 in0.0 mm 0.58 in14.7 mm
06:00 PM 64.1°F17.8°C 58.8°F14.9°C 83% Calm Calm 3.0 mph4.8 kmh 29.94 in1013.9 mb 0.00 in0.0 mm 0.00 in0.0 mm 0.58 in14.7 mm
06:05 PM 63.9°F17.7°C 58.6°F14.8°C 83% Calm Calm -- 29.94 in1013.9 mb 0.00 in0.0 mm 0.00 in0.0 mm 0.58 in14.7 mm
06:10 PM 63.7°F17.6°C 58.7°F14.8°C 84% 5.0 mph SE8.0 kmh SE 5.0 mph8.0 kmh 29.94 in1013.9 mb 0.00 in0.0 mm 0.00 in0.0 mm 0.58 in14.7 mm
06:15 PM 63.6°F17.6°C 58.6°F14.8°C 84% Calm Calm 5.0 mph8.0 kmh 29.95 in1014.2 mb 0.00 in0.0 mm 0.00 in0.0 mm 0.58 in14.7 mm
06:20 PM 63.6°F17.6°C 58.6°F14.8°C 84% Calm Calm 3.0 mph4.8 kmh 29.94 in1013.9 mb 0.00 in0.0 mm 0.00 in0.0 mm 0.58 in14.7 mm
06:25 PM 63.5°F17.5°C 58.5°F14.7°C 84% Calm Calm 1.0 mph1.6 kmh 29.95 in1014.2 mb 0.00 in0.0 mm 0.00 in0.0 mm 0.58 in14.7 mm
06:30 PM 63.3°F17.4°C 58.3°F14.6°C 84% Calm Calm 1.0 mph1.6 kmh 29.95 in1014.2 mb 0.00 in0.0 mm 0.00 in0.0 mm 0.58 in14.7 mm
06:35 PM 63.1°F17.3°C 58.5°F14.7°C 85% Calm Calm -- 29.95 in1014.2 mb 0.00 in0.0 mm 0.00 in0.0 mm 0.58 in14.7 mm
06:40 PM 62.9°F17.2°C 58.3°F14.6°C 85% Calm Calm -- 29.95 in1014.2 mb 0.00 in0.0 mm 0.00 in0.0 mm 0.58 in14.7 mm
06:45 PM 62.6°F17.0°C 58.0°F14.4°C 85% Calm Calm -- 29.95 in1014.2 mb 0.00 in0.0 mm 0.00 in0.0 mm 0.58 in14.7 mm
06:50 PM 62.4°F16.9°C 58.1°F14.5°C 86% Calm Calm -- 29.95 in1014.2 mb 0.00 in0.0 mm 0.00 in0.0 mm 0.58 in14.7 mm
06:55 PM 62.2°F16.8°C 57.9°F14.4°C 86% Calm Calm -- 29.95 in1014.2 mb 0.00 in0.0 mm 0.00 in0.0 mm 0.58 in14.7 mm
07:00 PM 61.9°F16.6°C 57.6°F14.2°C 86% Calm Calm -- 29.95 in1014.2 mb 0.00 in0.0 mm 0.00 in0.0 mm 0.58 in14.7 mm
07:05 PM 61.7°F16.5°C 57.4°F14.1°C 86% Calm Calm -- 29.95 in1014.2 mb 0.00 in0.0 mm 0.00 in0.0 mm 0.58 in14.7 mm
07:10 PM 61.5°F16.4°C 57.5°F14.2°C 87% Calm Calm -- 29.95 in1014.2 mb 0.00 in0.0 mm 0.00 in0.0 mm 0.58 in14.7 mm
07:15 PM 61.3°F16.3°C 57.3°F14.1°C 87% Calm Calm 2.0 mph3.2 kmh 29.95 in1014.2 mb 0.00 in0.0 mm 0.00 in0.0 mm 0.58 in14.7 mm
07:20 PM 61.1°F16.2°C 57.1°F13.9°C 87% Calm Calm 1.0 mph1.6 kmh 29.95 in1014.2 mb 0.00 in0.0 mm 0.00 in0.0 mm 0.58 in14.7 mm
07:25 PM 60.9°F16.1°C 57.3°F14.1°C 88% Calm Calm -- 29.94 in1013.9 mb 0.00 in0.0 mm 0.00 in0.0 mm 0.58 in14.7 mm
07:30 PM 60.8°F16.0°C 57.2°F14.0°C 88% Calm Calm -- 29.94 in1013.9 mb 0.00 in0.0 mm 0.00 in0.0 mm 0.58 in14.7 mm
07:35 PM 60.7°F15.9°C 57.1°F13.9°C 88% Calm Calm -- 29.94 in1013.9 mb 0.00 in0.0 mm 0.00 in0.0 mm 0.58 in14.7 mm
07:40 PM 60.6°F15.9°C 57.0°F13.9°C 88% Calm Calm -- 29.95 in1014.2 mb 0.00 in0.0 mm 0.00 in0.0 mm 0.58 in14.7 mm
07:45 PM 60.5°F15.8°C 56.9°F13.8°C 88% Calm Calm -- 29.95 in1014.2 mb 0.00 in0.0 mm 0.00 in0.0 mm 0.58 in14.7 mm
07:50 PM 60.4°F15.8°C 57.1°F13.9°C 89% Calm Calm 1.0 mph1.6 kmh 29.95 in1014.2 mb 0.00 in0.0 mm 0.00 in0.0 mm 0.58 in14.7 mm
07:55 PM 60.2°F15.7°C 56.9°F13.8°C 89% Calm Calm -- 29.95 in1014.2 mb 0.00 in0.0 mm 0.00 in0.0 mm 0.58 in14.7 mm
08:00 PM 60.1°F15.6°C 56.8°F13.8°C 89% Calm Calm -- 29.95 in1014.2 mb 0.00 in0.0 mm 0.00 in0.0 mm 0.58 in14.7 mm
08:05 PM 60.0°F15.6°C 56.7°F13.7°C 89% Calm Calm -- 29.95 in1014.2 mb 0.00 in0.0 mm 0.00 in0.0 mm 0.58 in14.7 mm
08:10 PM 59.8°F15.4°C 56.5°F13.6°C 89% Calm Calm -- 29.95 in1014.2 mb 0.00 in0.0 mm 0.00 in0.0 mm 0.58 in14.7 mm
08:15 PM 59.7°F15.4°C 56.4°F13.6°C 89% Calm Calm -- 29.95 in1014.2 mb 0.00 in0.0 mm 0.00 in0.0 mm 0.58 in14.7 mm
08:20 PM 59.5°F15.3°C 56.2°F13.4°C 89% Calm Calm -- 29.95 in1014.2 mb 0.00 in0.0 mm 0.00 in0.0 mm 0.58 in14.7 mm
08:25 PM 59.3°F15.2°C 56.3°F13.5°C 90% Calm Calm -- 29.96 in1014.6 mb 0.00 in0.0 mm 0.00 in0.0 mm 0.58 in14.7 mm
08:30 PM 59.3°F15.2°C 56.3°F13.5°C 90% Calm Calm -- 29.96 in1014.6 mb 0.00 in0.0 mm 0.00 in0.0 mm 0.58 in14.7 mm
08:35 PM 59.2°F15.1°C 56.2°F13.4°C 90% Calm Calm -- 29.96 in1014.6 mb 0.00 in0.0 mm 0.00 in0.0 mm 0.58 in14.7 mm
08:40 PM 59.1°F15.1°C 56.1°F13.4°C 90% Calm Calm -- 29.95 in1014.2 mb 0.00 in0.0 mm 0.00 in0.0 mm 0.58 in14.7 mm
08:45 PM 59.1°F15.1°C 56.1°F13.4°C 90% Calm Calm -- 29.95 in1014.2 mb 0.00 in0.0 mm 0.00 in0.0 mm 0.58 in14.7 mm
08:50 PM 58.9°F14.9°C 55.9°F13.3°C 90% Calm Calm -- 29.95 in1014.2 mb 0.00 in0.0 mm 0.00 in0.0 mm 0.58 in14.7 mm
08:55 PM 58.7°F14.8°C 56.0°F13.3°C 91% Calm Calm -- 29.96 in1014.6 mb 0.00 in0.0 mm 0.00 in0.0 mm 0.58 in14.7 mm
09:00 PM 58.5°F14.7°C 55.8°F13.2°C 91% Calm Calm -- 29.96 in1014.6 mb 0.00 in0.0 mm 0.00 in0.0 mm 0.58 in14.7 mm
09:05 PM 58.3°F14.6°C 55.6°F13.1°C 91% Calm Calm -- 29.95 in1014.2 mb 0.00 in0.0 mm 0.00 in0.0 mm 0.58 in14.7 mm
09:10 PM 58.1°F14.5°C 55.4°F13.0°C 91% Calm Calm -- 29.95 in1014.2 mb 0.00 in0.0 mm 0.00 in0.0 mm 0.58 in14.7 mm
09:15 PM 58.0°F14.4°C 55.3°F12.9°C 91% Calm Calm -- 29.95 in1014.2 mb 0.00 in0.0 mm 0.00 in0.0 mm 0.58 in14.7 mm
09:20 PM 57.9°F14.4°C 55.5°F13.1°C 92% Calm Calm -- 29.95 in1014.2 mb 0.00 in0.0 mm 0.00 in0.0 mm 0.58 in14.7 mm
09:25 PM 57.8°F14.3°C 55.4°F13.0°C 92% Calm Calm 1.0 mph1.6 kmh 29.95 in1014.2 mb 0.00 in0.0 mm 0.00 in0.0 mm 0.58 in14.7 mm
09:30 PM 57.8°F14.3°C 55.7°F13.2°C 93% 2.0 mph SE3.2 kmh SE 4.0 mph6.4 kmh 29.95 in1014.2 mb 0.00 in0.0 mm 0.00 in0.0 mm 0.58 in14.7 mm
09:35 PM 57.8°F14.3°C 55.7°F13.2°C 93% 2.0 mph SE3.2 kmh SE 4.0 mph6.4 kmh 29.95 in1014.2 mb 0.00 in0.0 mm 0.00 in0.0 mm 0.58 in14.7 mm
09:40 PM 57.8°F14.3°C 55.7°F13.2°C 93% Calm Calm 2.0 mph3.2 kmh 29.94 in1013.9 mb 0.00 in0.0 mm 0.00 in0.0 mm 0.58 in14.7 mm
09:45 PM 57.7°F14.3°C 55.6°F13.1°C 93% Calm Calm -- 29.94 in1013.9 mb 0.00 in0.0 mm 0.00 in0.0 mm 0.58 in14.7 mm
09:50 PM 57.6°F14.2°C 55.5°F13.1°C 93% Calm Calm -- 29.94 in1013.9 mb 0.00 in0.0 mm 0.00 in0.0 mm 0.58 in14.7 mm
09:55 PM 57.5°F14.2°C 55.7°F13.2°C 94% Calm Calm -- 29.94 in1013.9 mb 0.00 in0.0 mm 0.00 in0.0 mm 0.58 in14.7 mm
10:00 PM 57.4°F14.1°C 55.6°F13.1°C 94% Calm Calm -- 29.94 in1013.9 mb 0.00 in0.0 mm 0.00 in0.0 mm 0.58 in14.7 mm
10:05 PM 57.4°F14.1°C 55.6°F13.1°C 94% 3.0 mph SE4.8 kmh SE 3.0 mph4.8 kmh 29.93 in1013.5 mb 0.00 in0.0 mm 0.00 in0.0 mm 0.58 in14.7 mm
10:10 PM 57.5°F14.2°C 55.7°F13.2°C 94% 2.0 mph SE3.2 kmh SE 3.0 mph4.8 kmh 29.93 in1013.5 mb 0.00 in0.0 mm 0.00 in0.0 mm 0.58 in14.7 mm
10:15 PM 57.5°F14.2°C 55.7°F13.2°C 94% Calm Calm 2.0 mph3.2 kmh 29.94 in1013.9 mb 0.00 in0.0 mm 0.00 in0.0 mm 0.58 in14.7 mm
10:20 PM 57.6°F14.2°C 56.1°F13.4°C 95% Calm Calm 3.0 mph4.8 kmh 29.94 in1013.9 mb 0.00 in0.0 mm 0.00 in0.0 mm 0.58 in14.7 mm
10:25 PM 57.6°F14.2°C 56.1°F13.4°C 95% Calm Calm 1.0 mph1.6 kmh 29.94 in1013.9 mb 0.00 in0.0 mm 0.00 in0.0 mm 0.58 in14.7 mm
10:30 PM 57.5°F14.2°C 56.0°F13.3°C 95% Calm Calm 1.0 mph1.6 kmh 29.94 in1013.9 mb 0.00 in0.0 mm 0.00 in0.0 mm 0.58 in14.7 mm
10:35 PM 57.3°F14.1°C 55.5°F13.1°C 94% Calm Calm -- 29.94 in1013.9 mb 0.00 in0.0 mm 0.00 in0.0 mm 0.58 in14.7 mm
10:40 PM 57.2°F14.0°C 55.4°F13.0°C 94% Calm Calm -- 29.94 in1013.9 mb 0.00 in0.0 mm 0.00 in0.0 mm 0.58 in14.7 mm
10:45 PM 57.1°F13.9°C 55.6°F13.1°C 95% Calm Calm -- 29.94 in1013.9 mb 0.00 in0.0 mm 0.00 in0.0 mm 0.58 in14.7 mm
10:50 PM 57.0°F13.9°C 55.5°F13.1°C 95% Calm Calm -- 29.94 in1013.9 mb 0.00 in0.0 mm 0.00 in0.0 mm 0.58 in14.7 mm
10:55 PM 56.8°F13.8°C 55.0°F12.8°C 94% Calm Calm -- 29.94 in1013.9 mb 0.00 in0.0 mm 0.00 in0.0 mm 0.58 in14.7 mm
11:00 PM 56.7°F13.7°C 54.9°F12.7°C 94% Calm Calm -- 29.94 in1013.9 mb 0.00 in0.0 mm 0.00 in0.0 mm 0.58 in14.7 mm
11:05 PM 56.5°F13.6°C 55.0°F12.8°C 95% Calm Calm -- 29.94 in1013.9 mb 0.00 in0.0 mm 0.00 in0.0 mm 0.58 in14.7 mm
11:10 PM 56.5°F13.6°C 55.0°F12.8°C 95% Calm Calm -- 29.94 in1013.9 mb 0.00 in0.0 mm 0.00 in0.0 mm 0.58 in14.7 mm
11:15 PM 56.4°F13.6°C 54.9°F12.7°C 95% Calm Calm -- 29.94 in1013.9 mb 0.00 in0.0 mm 0.00 in0.0 mm 0.58 in14.7 mm
11:20 PM 56.2°F13.4°C 54.7°F12.6°C 95% Calm Calm -- 29.94 in1013.9 mb 0.00 in0.0 mm 0.00 in0.0 mm 0.58 in14.7 mm
11:25 PM 56.1°F13.4°C 54.6°F12.6°C 95% Calm Calm -- 29.94 in1013.9 mb 0.00 in0.0 mm 0.00 in0.0 mm 0.58 in14.7 mm
11:30 PM 56.0°F13.3°C 54.5°F12.5°C 95% Calm Calm -- 29.94 in1013.9 mb 0.00 in0.0 mm 0.00 in0.0 mm 0.58 in14.7 mm
11:35 PM 55.9°F13.3°C 54.4°F12.4°C 95% Calm Calm -- 29.94 in1013.9 mb 0.00 in0.0 mm 0.00 in0.0 mm 0.58 in14.7 mm
11:40 PM 55.8°F13.2°C 54.3°F12.4°C 95% Calm Calm -- 29.93 in1013.5 mb 0.00 in0.0 mm 0.00 in0.0 mm 0.58 in14.7 mm
11:45 PM 55.7°F13.2°C 54.2°F12.3°C 95% Calm Calm -- 29.94 in1013.9 mb 0.00 in0.0 mm 0.00 in0.0 mm 0.58 in14.7 mm
11:50 PM 55.7°F13.2°C 54.2°F12.3°C 95% Calm Calm -- 29.94 in1013.9 mb 0.00 in0.0 mm 0.00 in0.0 mm 0.58 in14.7 mm
11:55 PM 55.7°F13.2°C 54.2°F12.3°C 95% Calm Calm -- 29.94 in1013.9 mb 0.00 in0.0 mm 0.00 in0.0 mm 0.58 in14.7 mm